Alexandra — WDD5677 — position and weather

sailwx.info

Track history (hours):
 
Tides and Currents Weather Stations Pressure Air Temp Water Temp Dewpoint Dewpoint Depression Visibility Wind Speed Wind Dir Waves Ship Positions

Alexandra

Owner: Weeks Marine, Inc., Cranford, NJ. More information available from US FCC via Universal Licensing System and Coast Guard Vessel Documentation Center.

Last reported at 2017-Jun-14 01:40 UTC. Time now 2017-Jun-22 18:42 UTC.
Position N 35°16' W 075°26'.
Warning: this ship's position is 8 days out of date.

Length 37 m; draft 5 m.

Type: Tug. MMSI: 367161950.

Date/timePositionNaut miles runAvg speedWind from/ knotsBaromVisibWave heightAir tempDewpointWater temp
2017-Jun-14 01:40N 35°16' W 075°26'1 1.7
2017-Jun-14 00:55N 35°17' W 075°25'1 1.7
2017-Jun-14 00:27N 35°18' W 075°25'1 1.7
2017-Jun-14 00:00N 35°19' W 075°25'  
2017-Jun-11 13:07N 37°24' W 074°59'2 5.7
2017-Jun-11 12:47N 37°26' W 074°59'2 5.7
2017-Jun-11 12:26N 37°28' W 074°58'3 5.7
2017-Jun-11 12:00N 37°30' W 074°58'4 5.0
2017-Jun-11 11:15N 37°34' W 074°57'2 5.6
2017-Jun-11 10:59N 37°35' W 074°57'3 5.7
2017-Jun-11 10:23N 37°39' W 074°57'3 5.7
2017-Jun-11 09:47N 37°42' W 074°56'2 5.9
2017-Jun-11 09:25N 37°44' W 074°56'2 5.9
2017-Jun-11 09:01N 37°47' W 074°55'7 5.9
2017-Jun-11 07:51N 37°53' W 074°53'2 5.8
2017-Jun-11 07:30N 37°55' W 074°53'3 5.7
2017-Jun-11 07:00N 37°58' W 074°52'88 4.9
2017-Jun-10 12:59N 39°23' W 074°25'0 0.0
2017-Jun-10 12:30N 39°23' W 074°25'0 0.1
2017-Jun-10 12:01N 39°23' W 074°25'0 0.0
2017-Jun-10 11:31N 39°23' W 074°25'0 0.0
2017-Jun-10 10:59N 39°23' W 074°25'0 0.0
2017-Jun-10 10:30N 39°23' W 074°25'0 0.0
2017-Jun-10 09:57N 39°23' W 074°25'0 0.0
2017-Jun-10 09:30N 39°23' W 074°25'0 0.0
2017-Jun-10 09:01N 39°23' W 074°25'0 0.0
2017-Jun-10 08:31N 39°23' W 074°25'0 0.0
2017-Jun-10 08:00N 39°23' W 074°25'0 0.0
2017-Jun-10 07:30N 39°23' W 074°25'0 0.0
2017-Jun-10 07:00N 39°23' W 074°25'0 0.0
2017-Jun-10 06:30N 39°23' W 074°25'0 0.0
2017-Jun-10 06:00N 39°23' W 074°25'0 0.0
2017-Jun-10 05:31N 39°23' W 074°25'0 0.0
2017-Jun-10 05:00N 39°23' W 074°25'0 0.0
2017-Jun-10 04:30N 39°23' W 074°25'0 0.0
2017-Jun-10 04:01N 39°23' W 074°25'0 0.0
2017-Jun-10 03:29N 39°23' W 074°25'0 0.0
2017-Jun-10 02:41N 39°23' W 074°25'0 0.0
2017-Jun-10 02:30N 39°23' W 074°25'12 4.3
2017-Jun-09 23:40N 39°31' W 074°13'211.2
2017-Jun-09 23:30N 39°33' W 074°12'511.1
2017-Jun-09 23:00N 39°37' W 074°08'511.0
2017-Jun-09 22:30N 39°42' W 074°05'611.0
2017-Jun-09 22:00N 39°47' W 074°02'3 5.9
2017-Jun-09 21:29N 39°50' W 074°00'1610.0
2017-Jun-09 19:54N 40°05' W 073°59'2311.5
2017-Jun-09 17:56N 40°28' W 073°55'511.4
2017-Jun-09 17:28N 40°31' W 074°01'612.7
2017-Jun-09 17:00N 40°37' W 074°03'3 7.1
2017-Jun-09 16:30N 40°40' W 074°04'0 0.8
2017-Jun-09 16:00N 40°41' W 074°05'0 0.0
2017-Jun-09 15:30N 40°41' W 074°05'0 0.0
2017-Jun-09 15:00N 40°41' W 074°05'0 0.0
2017-Jun-09 14:30N 40°41' W 074°05'0 0.0
2017-Jun-09 13:30N 40°41' W 074°05'0 0.0
2017-Jun-09 13:00N 40°41' W 074°05'0 0.0
2017-Jun-09 12:30N 40°41' W 074°05'0 0.0
2017-Jun-09 12:00N 40°41' W 074°05'0 0.0
2017-Jun-09 11:30N 40°41' W 074°05'0 0.0
2017-Jun-09 11:00N 40°41' W 074°05'0 0.0
2017-Jun-09 10:30N 40°41' W 074°05'0 0.0
2017-Jun-09 10:00N 40°41' W 074°05'0 0.0
2017-Jun-09 09:30N 40°41' W 074°05'0 0.0
2017-Jun-09 09:00N 40°41' W 074°05'0 0.0
2017-Jun-09 08:30N 40°41' W 074°05'0 0.0
2017-Jun-09 08:00N 40°41' W 074°05'0 0.0
2017-Jun-09 07:30N 40°41' W 074°05'0 0.0
2017-Jun-09 07:00N 40°41' W 074°05'0 0.0
2017-Jun-09 06:30N 40°41' W 074°05'0 0.0
2017-Jun-09 06:00N 40°41' W 074°05'0 0.0
2017-Jun-09 05:30N 40°41' W 074°05'0 0.0
2017-Jun-09 05:00N 40°41' W 074°05'0 0.0
2017-Jun-09 04:30N 40°41' W 074°05'0 0.0
2017-Jun-09 04:00N 40°41' W 074°05'0 0.0
2017-Jun-09 03:30N 40°41' W 074°05'0 0.0
2017-Jun-09 03:00N 40°41' W 074°05'0 0.0
2017-Jun-09 02:30N 40°41' W 074°05'0 0.0
2017-Jun-09 02:00N 40°41' W 074°05'0 0.0
2017-Jun-09 01:30N 40°41' W 074°05'0 0.0
2017-Jun-09 01:00N 40°41' W 074°05'0 0.0
2017-Jun-09 00:30N 40°41' W 074°05'0 0.0
2017-Jun-09 00:00N 40°41' W 074°05'0 0.0
2017-Jun-08 23:30N 40°41' W 074°05'0 0.0
2017-Jun-08 23:00N 40°41' W 074°05'0 0.0
2017-Jun-08 22:30N 40°41' W 074°05'0 0.0
2017-Jun-08 22:00N 40°41' W 074°05'0 0.0
2017-Jun-08 21:30N 40°41' W 074°05'0 0.0
2017-Jun-08 21:00N 40°41' W 074°05'0 0.0
2017-Jun-08 20:30N 40°41' W 074°05'0 0.0
2017-Jun-08 20:00N 40°41' W 074°05'0 0.0
2017-Jun-08 19:30N 40°41' W 074°05'0 0.0
2017-Jun-08 19:00N 40°41' W 074°05'0 0.0
2017-Jun-08 18:30N 40°41' W 074°05'0 0.0
2017-Jun-08 18:00N 40°41' W 074°05'0 0.0
2017-Jun-08 17:30N 40°41' W 074°05'0 0.0
2017-Jun-08 17:00N 40°41' W 074°05'0 0.0
2017-Jun-08 16:30N 40°41' W 074°05'0 0.0
2017-Jun-08 16:00N 40°41' W 074°05'0 0.0
2017-Jun-08 15:30N 40°41' W 074°05'0 0.0
2017-Jun-08 15:00N 40°41' W 074°05'0 0.0
2017-Jun-08 14:30N 40°41' W 074°05'0 0.0
2017-Jun-08 13:30N 40°41' W 074°05'0 0.0
2017-Jun-08 13:00N 40°41' W 074°05'0 0.0
2017-Jun-08 12:30N 40°41' W 074°05'0 0.0
2017-Jun-08 12:00N 40°41' W 074°05'0 0.0
2017-Jun-08 11:30N 40°41' W 074°05'0 0.0
2017-Jun-08 11:00N 40°41' W 074°05'0 0.0
2017-Jun-08 10:30N 40°41' W 074°05'0 0.0
2017-Jun-08 10:00N 40°41' W 074°05'0 0.0
2017-Jun-08 09:30N 40°41' W 074°05'0 0.0
2017-Jun-08 09:00N 40°41' W 074°05'0 0.0
2017-Jun-08 08:30N 40°41' W 074°05'0 0.0
2017-Jun-08 08:00N 40°41' W 074°05'0 0.0
2017-Jun-08 07:30N 40°41' W 074°05'0 0.0
2017-Jun-08 07:00N 40°41' W 074°05'0 0.0
2017-Jun-08 06:30N 40°41' W 074°05'0 0.0
2017-Jun-08 06:00N 40°41' W 074°05'0 0.0
2017-Jun-08 05:30N 40°41' W 074°05'0 0.0
2017-Jun-08 05:00N 40°41' W 074°05'0 0.0
2017-Jun-08 04:30N 40°41' W 074°05'0 0.0
2017-Jun-08 04:00N 40°41' W 074°05'0 0.0
2017-Jun-08 03:30N 40°41' W 074°05'0 0.0
2017-Jun-08 03:00N 40°41' W 074°05'0 0.0
2017-Jun-08 02:30N 40°41' W 074°05'0 0.0
2017-Jun-08 02:00N 40°41' W 074°05'0 0.0
2017-Jun-08 01:30N 40°41' W 074°05'0 0.0
2017-Jun-08 01:00N 40°41' W 074°05'0 0.0
2017-Jun-08 00:31N 40°41' W 074°05'0 0.0
2017-Jun-08 00:00N 40°41' W 074°05'2 3.3
2017-Jun-07 23:30N 40°39' W 074°05'1 2.2
2017-Jun-07 23:00N 40°39' W 074°07'0 0.0
2017-Jun-07 22:30N 40°39' W 074°07'0 0.0
2017-Jun-07 22:00N 40°39' W 074°07'0 0.0
2017-Jun-07 21:30N 40°39' W 074°07'0 0.0
2017-Jun-07 21:00N 40°39' W 074°07'0 0.0
2017-Jun-07 20:30N 40°39' W 074°07'0 0.0
2017-Jun-07 20:00N 40°39' W 074°07'0 0.0
2017-Jun-07 19:30N 40°39' W 074°07'0 0.0
2017-Jun-07 19:00N 40°39' W 074°07'0 0.0
2017-Jun-07 18:30N 40°39' W 074°07'0 0.0
2017-Jun-07 18:00N 40°39' W 074°07'1 2.8
2017-Jun-07 17:30N 40°39' W 074°05'1 2.8
2017-Jun-07 17:00N 40°41' W 074°05'0 0.0
2017-Jun-07 16:30N 40°41' W 074°05'0 0.0
2017-Jun-07 16:00N 40°41' W 074°05'0 0.0
2017-Jun-07 15:30N 40°41' W 074°05'0 0.0
2017-Jun-07 15:00N 40°41' W 074°05'0 0.0
2017-Jun-07 14:00N 40°41' W 074°05'0 0.0
2017-Jun-07 13:30N 40°41' W 074°05'0 0.0
2017-Jun-07 13:00N 40°41' W 074°05'0 0.0
2017-Jun-07 12:30N 40°41' W 074°05'0 0.0
2017-Jun-07 12:00N 40°41' W 074°05'0 0.0
2017-Jun-07 11:30N 40°41' W 074°05'0 0.0
2017-Jun-07 11:00N 40°41' W 074°05'0 0.0
2017-Jun-07 10:30N 40°41' W 074°05'0 0.0
2017-Jun-07 10:00N 40°41' W 074°05'0 0.0
2017-Jun-07 09:30N 40°41' W 074°05'0 0.0
2017-Jun-07 09:00N 40°41' W 074°05'0 0.0
2017-Jun-07 08:31N 40°41' W 074°05'0 0.0
2017-Jun-07 08:00N 40°41' W 074°05'0 0.0
2017-Jun-07 07:30N 40°41' W 074°05'0 0.0
2017-Jun-07 07:00N 40°41' W 074°05'0 0.0
2017-Jun-07 06:30N 40°41' W 074°05'0 0.0
2017-Jun-07 06:00N 40°41' W 074°05'0 0.0
2017-Jun-07 05:30N 40°41' W 074°05'0 0.0
2017-Jun-07 05:00N 40°41' W 074°05'0 0.0
2017-Jun-07 04:30N 40°41' W 074°05'0 0.0
2017-Jun-07 04:00N 40°41' W 074°05'0 0.0
2017-Jun-07 03:30N 40°41' W 074°05'0 0.0
2017-Jun-07 03:00N 40°41' W 074°05'0 0.0
2017-Jun-07 02:30N 40°41' W 074°05'0 0.0
2017-Jun-07 02:00N 40°41' W 074°05'0 0.0
2017-Jun-07 01:30N 40°41' W 074°05'0 0.0
2017-Jun-07 01:00N 40°41' W 074°05'0 0.0
2017-Jun-07 00:30N 40°41' W 074°05'0 0.0
2017-Jun-07 00:00N 40°41' W 074°05'0 0.0
2017-Jun-06 23:30N 40°41' W 074°05'0 0.0
2017-Jun-06 23:00N 40°41' W 074°05'0 0.0
2017-Jun-06 22:30N 40°41' W 074°05'1 2.7
2017-Jun-06 22:01N 40°40' W 074°03'612.5
2017-Jun-06 21:30N 40°33' W 074°02'4210.6
2017-Jun-06 17:31N 39°51' W 074°02'111.3
2017-Jun-06 17:28N 39°51' W 074°03'611.1
2017-Jun-06 16:58N 39°45' W 074°03'511.1
2017-Jun-06 16:30N 39°41' W 074°07'611.3
2017-Jun-06 15:59N 39°35' W 074°10'16 2.4
2017-Jun-06 09:15N 39°22' W 074°21'1 0.1
2017-Jun-05 23:30N 39°21' W 074°23'  
Track history (hours):
 
Tides and Currents Weather Stations Pressure Air Temp Water Temp Dewpoint Dewpoint Depression Visibility Wind Speed Wind Dir Waves Ship Positions

Alexandra

Owner: Weeks Marine, Inc., Cranford, NJ. More information available from US FCC via Universal Licensing System and Coast Guard Vessel Documentation Center.

Last reported at 2017-Jun-14 01:40 UTC. Time now 2017-Jun-22 18:42 UTC.
Position N 35°16' W 075°26'.
Warning: this ship's position is 8 days out of date.

Length 37 m; draft 5 m.

Type: Tug. MMSI: 367161950.

Date/timePositionNaut miles runAvg speedWind from/ knotsBaromVisibWave heightAir tempDewpointWater temp
2017-Jun-14 01:40N 35°16' W 075°26'1 1.7
2017-Jun-14 00:55N 35°17' W 075°25'1 1.7
2017-Jun-14 00:27N 35°18' W 075°25'1 1.7
2017-Jun-14 00:00N 35°19' W 075°25'  
2017-Jun-11 13:07N 37°24' W 074°59'2 5.7
2017-Jun-11 12:47N 37°26' W 074°59'2 5.7
2017-Jun-11 12:26N 37°28' W 074°58'3 5.7
2017-Jun-11 12:00N 37°30' W 074°58'4 5.0
2017-Jun-11 11:15N 37°34' W 074°57'2 5.6
2017-Jun-11 10:59N 37°35' W 074°57'3 5.7
2017-Jun-11 10:23N 37°39' W 074°57'3 5.7
2017-Jun-11 09:47N 37°42' W 074°56'2 5.9
2017-Jun-11 09:25N 37°44' W 074°56'2 5.9
2017-Jun-11 09:01N 37°47' W 074°55'7 5.9
2017-Jun-11 07:51N 37°53' W 074°53'2 5.8
2017-Jun-11 07:30N 37°55' W 074°53'3 5.7
2017-Jun-11 07:00N 37°58' W 074°52'88 4.9
2017-Jun-10 12:59N 39°23' W 074°25'0 0.0
2017-Jun-10 12:30N 39°23' W 074°25'0 0.1
2017-Jun-10 12:01N 39°23' W 074°25'0 0.0
2017-Jun-10 11:31N 39°23' W 074°25'0 0.0
2017-Jun-10 10:59N 39°23' W 074°25'0 0.0
2017-Jun-10 10:30N 39°23' W 074°25'0 0.0
2017-Jun-10 09:57N 39°23' W 074°25'0 0.0
2017-Jun-10 09:30N 39°23' W 074°25'0 0.0
2017-Jun-10 09:01N 39°23' W 074°25'0 0.0
2017-Jun-10 08:31N 39°23' W 074°25'0 0.0
2017-Jun-10 08:00N 39°23' W 074°25'0 0.0
2017-Jun-10 07:30N 39°23' W 074°25'0 0.0
2017-Jun-10 07:00N 39°23' W 074°25'0 0.0
2017-Jun-10 06:30N 39°23' W 074°25'0 0.0
2017-Jun-10 06:00N 39°23' W 074°25'0 0.0
2017-Jun-10 05:31N 39°23' W 074°25'0 0.0
2017-Jun-10 05:00N 39°23' W 074°25'0 0.0
2017-Jun-10 04:30N 39°23' W 074°25'0 0.0
2017-Jun-10 04:01N 39°23' W 074°25'0 0.0
2017-Jun-10 03:29N 39°23' W 074°25'0 0.0
2017-Jun-10 02:41N 39°23' W 074°25'0 0.0
2017-Jun-10 02:30N 39°23' W 074°25'12 4.3
2017-Jun-09 23:40N 39°31' W 074°13'211.2
2017-Jun-09 23:30N 39°33' W 074°12'511.1
2017-Jun-09 23:00N 39°37' W 074°08'511.0
2017-Jun-09 22:30N 39°42' W 074°05'611.0
2017-Jun-09 22:00N 39°47' W 074°02'3 5.9
2017-Jun-09 21:29N 39°50' W 074°00'1610.0
2017-Jun-09 19:54N 40°05' W 073°59'2311.5
2017-Jun-09 17:56N 40°28' W 073°55'511.4
2017-Jun-09 17:28N 40°31' W 074°01'612.7
2017-Jun-09 17:00N 40°37' W 074°03'3 7.1
2017-Jun-09 16:30N 40°40' W 074°04'0 0.8
2017-Jun-09 16:00N 40°41' W 074°05'0 0.0
2017-Jun-09 15:30N 40°41' W 074°05'0 0.0
2017-Jun-09 15:00N 40°41' W 074°05'0 0.0
2017-Jun-09 14:30N 40°41' W 074°05'0 0.0
2017-Jun-09 13:30N 40°41' W 074°05'0 0.0
2017-Jun-09 13:00N 40°41' W 074°05'0 0.0
2017-Jun-09 12:30N 40°41' W 074°05'0 0.0
2017-Jun-09 12:00N 40°41' W 074°05'0 0.0
2017-Jun-09 11:30N 40°41' W 074°05'0 0.0
2017-Jun-09 11:00N 40°41' W 074°05'0 0.0
2017-Jun-09 10:30N 40°41' W 074°05'0 0.0
2017-Jun-09 10:00N 40°41' W 074°05'0 0.0
2017-Jun-09 09:30N 40°41' W 074°05'0 0.0
2017-Jun-09 09:00N 40°41' W 074°05'0 0.0
2017-Jun-09 08:30N 40°41' W 074°05'0 0.0
2017-Jun-09 08:00N 40°41' W 074°05'0 0.0
2017-Jun-09 07:30N 40°41' W 074°05'0 0.0
2017-Jun-09 07:00N 40°41' W 074°05'0 0.0
2017-Jun-09 06:30N 40°41' W 074°05'0 0.0
2017-Jun-09 06:00N 40°41' W 074°05'0 0.0
2017-Jun-09 05:30N 40°41' W 074°05'0 0.0
2017-Jun-09 05:00N 40°41' W 074°05'0 0.0
2017-Jun-09 04:30N 40°41' W 074°05'0 0.0
2017-Jun-09 04:00N 40°41' W 074°05'0 0.0
2017-Jun-09 03:30N 40°41' W 074°05'0 0.0
2017-Jun-09 03:00N 40°41' W 074°05'0 0.0
2017-Jun-09 02:30N 40°41' W 074°05'0 0.0
2017-Jun-09 02:00N 40°41' W 074°05'0 0.0
2017-Jun-09 01:30N 40°41' W 074°05'0 0.0
2017-Jun-09 01:00N 40°41' W 074°05'0 0.0
2017-Jun-09 00:30N 40°41' W 074°05'0 0.0
2017-Jun-09 00:00N 40°41' W 074°05'0 0.0
2017-Jun-08 23:30N 40°41' W 074°05'0 0.0
2017-Jun-08 23:00N 40°41' W 074°05'0 0.0
2017-Jun-08 22:30N 40°41' W 074°05'0 0.0
2017-Jun-08 22:00N 40°41' W 074°05'0 0.0
2017-Jun-08 21:30N 40°41' W 074°05'0 0.0
2017-Jun-08 21:00N 40°41' W 074°05'0 0.0
2017-Jun-08 20:30N 40°41' W 074°05'0 0.0
2017-Jun-08 20:00N 40°41' W 074°05'0 0.0
2017-Jun-08 19:30N 40°41' W 074°05'0 0.0
2017-Jun-08 19:00N 40°41' W 074°05'0 0.0
2017-Jun-08 18:30N 40°41' W 074°05'0 0.0
2017-Jun-08 18:00N 40°41' W 074°05'0 0.0
2017-Jun-08 17:30N 40°41' W 074°05'0 0.0
2017-Jun-08 17:00N 40°41' W 074°05'0 0.0
2017-Jun-08 16:30N 40°41' W 074°05'0 0.0
2017-Jun-08 16:00N 40°41' W 074°05'0 0.0
2017-Jun-08 15:30N 40°41' W 074°05'0 0.0
2017-Jun-08 15:00N 40°41' W 074°05'0 0.0
2017-Jun-08 14:30N 40°41' W 074°05'0 0.0
2017-Jun-08 13:30N 40°41' W 074°05'0 0.0
2017-Jun-08 13:00N 40°41' W 074°05'0 0.0
2017-Jun-08 12:30N 40°41' W 074°05'0 0.0
2017-Jun-08 12:00N 40°41' W 074°05'0 0.0
2017-Jun-08 11:30N 40°41' W 074°05'0 0.0
2017-Jun-08 11:00N 40°41' W 074°05'0 0.0
2017-Jun-08 10:30N 40°41' W 074°05'0 0.0
2017-Jun-08 10:00N 40°41' W 074°05'0 0.0
2017-Jun-08 09:30N 40°41' W 074°05'0 0.0
2017-Jun-08 09:00N 40°41' W 074°05'0 0.0
2017-Jun-08 08:30N 40°41' W 074°05'0 0.0
2017-Jun-08 08:00N 40°41' W 074°05'0 0.0
2017-Jun-08 07:30N 40°41' W 074°05'0 0.0
2017-Jun-08 07:00N 40°41' W 074°05'0 0.0
2017-Jun-08 06:30N 40°41' W 074°05'0 0.0
2017-Jun-08 06:00N 40°41' W 074°05'0 0.0
2017-Jun-08 05:30N 40°41' W 074°05'0 0.0
2017-Jun-08 05:00N 40°41' W 074°05'0 0.0
2017-Jun-08 04:30N 40°41' W 074°05'0 0.0
2017-Jun-08 04:00N 40°41' W 074°05'0 0.0
2017-Jun-08 03:30N 40°41' W 074°05'0 0.0
2017-Jun-08 03:00N 40°41' W 074°05'0 0.0
2017-Jun-08 02:30N 40°41' W 074°05'0 0.0
2017-Jun-08 02:00N 40°41' W 074°05'0 0.0
2017-Jun-08 01:30N 40°41' W 074°05'0 0.0
2017-Jun-08 01:00N 40°41' W 074°05'0 0.0
2017-Jun-08 00:31N 40°41' W 074°05'0 0.0
2017-Jun-08 00:00N 40°41' W 074°05'2 3.3
2017-Jun-07 23:30N 40°39' W 074°05'1 2.2
2017-Jun-07 23:00N 40°39' W 074°07'0 0.0
2017-Jun-07 22:30N 40°39' W 074°07'0 0.0
2017-Jun-07 22:00N 40°39' W 074°07'0 0.0
2017-Jun-07 21:30N 40°39' W 074°07'0 0.0
2017-Jun-07 21:00N 40°39' W 074°07'0 0.0
2017-Jun-07 20:30N 40°39' W 074°07'0 0.0
2017-Jun-07 20:00N 40°39' W 074°07'0 0.0
2017-Jun-07 19:30N 40°39' W 074°07'0 0.0
2017-Jun-07 19:00N 40°39' W 074°07'0 0.0
2017-Jun-07 18:30N 40°39' W 074°07'0 0.0
2017-Jun-07 18:00N 40°39' W 074°07'1 2.8
2017-Jun-07 17:30N 40°39' W 074°05'1 2.8
2017-Jun-07 17:00N 40°41' W 074°05'0 0.0
2017-Jun-07 16:30N 40°41' W 074°05'0 0.0
2017-Jun-07 16:00N 40°41' W 074°05'0 0.0
2017-Jun-07 15:30N 40°41' W 074°05'0 0.0
2017-Jun-07 15:00N 40°41' W 074°05'0 0.0
2017-Jun-07 14:00N 40°41' W 074°05'0 0.0
2017-Jun-07 13:30N 40°41' W 074°05'0 0.0
2017-Jun-07 13:00N 40°41' W 074°05'0 0.0
2017-Jun-07 12:30N 40°41' W 074°05'0 0.0
2017-Jun-07 12:00N 40°41' W 074°05'0 0.0
2017-Jun-07 11:30N 40°41' W 074°05'0 0.0
2017-Jun-07 11:00N 40°41' W 074°05'0 0.0
2017-Jun-07 10:30N 40°41' W 074°05'0 0.0
2017-Jun-07 10:00N 40°41' W 074°05'0 0.0
2017-Jun-07 09:30N 40°41' W 074°05'0 0.0
2017-Jun-07 09:00N 40°41' W 074°05'0 0.0
2017-Jun-07 08:31N 40°41' W 074°05'0 0.0
2017-Jun-07 08:00N 40°41' W 074°05'0 0.0
2017-Jun-07 07:30N 40°41' W 074°05'0 0.0
2017-Jun-07 07:00N 40°41' W 074°05'0 0.0
2017-Jun-07 06:30N 40°41' W 074°05'0 0.0
2017-Jun-07 06:00N 40°41' W 074°05'0 0.0
2017-Jun-07 05:30N 40°41' W 074°05'0 0.0
2017-Jun-07 05:00N 40°41' W 074°05'0 0.0
2017-Jun-07 04:30N 40°41' W 074°05'0 0.0
2017-Jun-07 04:00N 40°41' W 074°05'0 0.0
2017-Jun-07 03:30N 40°41' W 074°05'0 0.0
2017-Jun-07 03:00N 40°41' W 074°05'0 0.0
2017-Jun-07 02:30N 40°41' W 074°05'0 0.0
2017-Jun-07 02:00N 40°41' W 074°05'0 0.0
2017-Jun-07 01:30N 40°41' W 074°05'0 0.0
2017-Jun-07 01:00N 40°41' W 074°05'0 0.0
2017-Jun-07 00:30N 40°41' W 074°05'0 0.0
2017-Jun-07 00:00N 40°41' W 074°05'0 0.0
2017-Jun-06 23:30N 40°41' W 074°05'0 0.0
2017-Jun-06 23:00N 40°41' W 074°05'0 0.0
2017-Jun-06 22:30N 40°41' W 074°05'1 2.7
2017-Jun-06 22:01N 40°40' W 074°03'612.5
2017-Jun-06 21:30N 40°33' W 074°02'4210.6
2017-Jun-06 17:31N 39°51' W 074°02'111.3
2017-Jun-06 17:28N 39°51' W 074°03'611.1
2017-Jun-06 16:58N 39°45' W 074°03'511.1
2017-Jun-06 16:30N 39°41' W 074°07'611.3
2017-Jun-06 15:59N 39°35' W 074°10'16 2.4
2017-Jun-06 09:15N 39°22' W 074°21'1 0.1
2017-Jun-05 23:30N 39°21' W 074°23'  

Dump ship's entire track history